createdAt,value
2019-03-11T00:01:57.907Z,99.40
2019-03-11T00:04:34.931Z,99.80
2019-03-11T00:07:12.065Z,99.90
2019-03-11T00:09:49.176Z,99.90
2019-03-11T00:12:27.430Z,99.90
2019-03-11T00:15:06.308Z,99.90
2019-03-11T00:17:43.461Z,99.90
2019-03-11T00:20:20.489Z,99.90
2019-03-11T00:22:57.667Z,99.90
2019-03-11T00:25:34.691Z,99.90
2019-03-11T00:28:11.805Z,99.90
2019-03-11T00:30:48.840Z,99.90
2019-03-11T00:33:25.952Z,99.90
2019-03-11T00:36:03.041Z,99.90
2019-03-11T00:38:40.156Z,99.90
2019-03-11T00:41:17.236Z,99.90
2019-03-11T00:43:54.338Z,99.90
2019-03-11T00:46:31.365Z,99.90
2019-03-11T00:49:08.580Z,99.90
2019-03-11T00:51:45.763Z,99.90
2019-03-11T00:54:22.881Z,99.90
2019-03-11T00:57:00.023Z,99.90
2019-03-11T00:59:37.145Z,99.90
2019-03-11T01:02:14.204Z,99.90
2019-03-11T01:04:51.294Z,99.90
2019-03-11T01:07:28.438Z,99.90
2019-03-11T01:10:08.071Z,99.90
2019-03-11T01:12:45.218Z,99.90
2019-03-11T01:15:22.291Z,99.90
2019-03-11T01:17:59.390Z,99.90
2019-03-11T01:20:36.484Z,99.90
2019-03-11T01:23:13.557Z,99.90
2019-03-11T01:25:50.662Z,99.90
2019-03-11T01:28:29.429Z,99.90
2019-03-11T01:31:11.153Z,99.90
2019-03-11T01:33:48.296Z,99.90
2019-03-11T01:36:25.330Z,99.90
2019-03-11T01:39:02.442Z,99.90
2019-03-11T01:41:39.473Z,99.90
2019-03-11T01:44:16.552Z,99.90
2019-03-11T01:46:53.608Z,99.90
2019-03-11T01:49:30.701Z,99.90
2019-03-11T01:52:07.791Z,99.90
2019-03-11T01:54:44.896Z,99.90
2019-03-11T01:57:23.095Z,99.90
2019-03-11T02:00:00.347Z,99.90
2019-03-11T02:02:39.602Z,99.90
2019-03-11T02:05:16.673Z,99.90
2019-03-11T02:07:53.748Z,99.90
2019-03-11T02:10:32.130Z,99.90
2019-03-11T02:13:09.293Z,99.90
2019-03-11T02:15:46.413Z,99.90
2019-03-11T02:18:23.493Z,99.90
2019-03-11T02:21:00.690Z,99.90
2019-03-11T02:23:37.765Z,99.90
2019-03-11T02:26:14.840Z,99.90
2019-03-11T02:28:51.956Z,99.90
2019-03-11T02:31:29.038Z,99.90
2019-03-11T02:34:06.102Z,99.90
2019-03-11T02:36:43.217Z,99.90
2019-03-11T02:39:20.233Z,99.90
2019-03-11T02:41:57.374Z,99.90
2019-03-11T02:44:34.407Z,99.90
2019-03-11T02:47:11.532Z,99.90
2019-03-11T02:49:48.610Z,99.90
2019-03-11T02:52:25.729Z,99.90
2019-03-11T02:55:03.023Z,99.90
2019-03-11T02:57:40.129Z,99.90
2019-03-11T03:00:41.615Z,99.90
2019-03-11T03:03:33.575Z,99.90
2019-03-11T03:06:12.266Z,99.90
2019-03-11T03:08:49.387Z,99.90
2019-03-11T03:11:26.688Z,99.70
2019-03-11T03:14:03.932Z,99.60
2019-03-11T03:16:41.152Z,99.00
2019-03-11T03:19:18.396Z,98.50
2019-03-11T03:21:55.501Z,98.40
2019-03-11T03:24:32.581Z,98.10
2019-03-11T03:27:09.657Z,98.40
2019-03-11T03:29:46.775Z,98.60
2019-03-11T03:32:23.877Z,99.00
2019-03-11T03:35:01.014Z,99.60
2019-03-11T03:37:38.159Z,99.70
2019-03-11T03:40:16.200Z,99.90
2019-03-11T03:42:54.797Z,99.90
2019-03-11T03:45:34.774Z,99.90
2019-03-11T03:48:11.885Z,99.90
2019-03-11T03:50:49.138Z,99.90
2019-03-11T03:53:26.238Z,99.90
2019-03-11T03:56:03.402Z,99.90
2019-03-11T03:58:40.520Z,99.90
2019-03-11T04:01:17.591Z,99.90
2019-03-11T04:03:54.684Z,99.90
2019-03-11T04:06:31.770Z,99.90
2019-03-11T04:09:08.879Z,99.90
2019-03-11T04:11:45.967Z,99.90
2019-03-11T04:14:23.074Z,99.90
2019-03-11T04:17:00.193Z,99.90
2019-03-11T04:19:37.301Z,99.90
2019-03-11T04:22:14.370Z,99.90
2019-03-11T04:24:51.414Z,99.90
2019-03-11T04:27:28.520Z,99.90
2019-03-11T04:30:09.397Z,99.90
2019-03-11T04:32:46.493Z,99.90
2019-03-11T04:35:23.583Z,99.90
2019-03-11T04:38:00.668Z,99.90
2019-03-11T04:40:37.745Z,99.90
2019-03-11T04:43:14.841Z,99.90
2019-03-11T04:45:51.972Z,99.90
2019-03-11T04:48:29.059Z,99.90
2019-03-11T04:51:06.144Z,99.90
2019-03-11T04:53:44.144Z,99.90
2019-03-11T04:56:21.197Z,99.90
2019-03-11T04:59:12.316Z,99.90
2019-03-11T05:01:49.409Z,99.90
2019-03-11T05:04:26.559Z,99.90
2019-03-11T05:07:03.643Z,99.90
2019-03-11T05:09:40.793Z,99.90
2019-03-11T05:12:17.834Z,99.90
2019-03-11T05:14:54.947Z,99.90
2019-03-11T05:17:32.008Z,99.90
2019-03-11T05:20:12.158Z,99.90
2019-03-11T05:22:50.308Z,99.90
2019-03-11T05:25:27.444Z,99.90
2019-03-11T05:28:04.471Z,99.90
2019-03-11T05:30:41.863Z,99.90
2019-03-11T05:33:18.975Z,99.90
2019-03-11T05:35:56.013Z,99.90
2019-03-11T05:38:33.402Z,99.90
2019-03-11T05:41:10.524Z,99.90
2019-03-11T05:43:47.566Z,99.90
2019-03-11T05:46:24.672Z,99.90
2019-03-11T05:49:01.741Z,99.90
2019-03-11T05:51:38.867Z,99.90
2019-03-11T05:54:15.977Z,99.90
2019-03-11T05:56:57.992Z,99.90
2019-03-11T05:59:34.684Z,99.90
2019-03-11T06:02:12.804Z,99.90
2019-03-11T06:04:49.878Z,99.90
2019-03-11T06:07:26.984Z,99.90
2019-03-11T06:10:08.722Z,99.90
2019-03-11T06:12:45.798Z,99.90
2019-03-11T06:15:23.425Z,99.90
2019-03-11T06:18:00.519Z,99.90
2019-03-11T06:20:53.965Z,99.90
2019-03-11T06:23:32.065Z,99.90
2019-03-11T06:26:09.645Z,99.90
2019-03-11T06:28:47.238Z,99.90
2019-03-11T06:31:24.321Z,99.90
2019-03-11T06:34:01.430Z,99.90
2019-03-11T06:36:38.506Z,99.90
2019-03-11T06:39:15.587Z,99.90
2019-03-11T06:41:52.678Z,99.90
2019-03-11T06:44:30.481Z,99.90
2019-03-11T06:47:07.704Z,99.90
2019-03-11T06:49:44.917Z,99.90
2019-03-11T06:52:22.067Z,99.90
2019-03-11T06:54:59.277Z,99.90
2019-03-11T06:57:36.382Z,99.90
2019-03-11T07:00:18.014Z,99.90
2019-03-11T07:02:55.067Z,99.90
2019-03-11T07:05:32.196Z,99.90
2019-03-11T07:08:09.284Z,99.90
2019-03-11T07:10:46.480Z,99.90
2019-03-11T07:13:24.124Z,99.90
2019-03-11T07:16:02.547Z,99.90
2019-03-11T07:18:41.090Z,99.90
2019-03-11T07:21:18.331Z,99.90
2019-03-11T07:23:55.445Z,99.90
2019-03-11T07:26:32.650Z,99.90
2019-03-11T07:29:09.746Z,99.90
2019-03-11T07:31:46.887Z,99.70
2019-03-11T07:34:23.942Z,99.30
2019-03-11T07:37:03.150Z,99.10
2019-03-11T07:39:44.983Z,98.90
2019-03-11T07:42:22.029Z,99.00
2019-03-11T07:44:59.185Z,98.10
2019-03-11T07:47:36.290Z,98.20
2019-03-11T07:50:15.212Z,97.40
2019-03-11T07:52:52.343Z,97.40
2019-03-11T07:55:29.452Z,96.80
2019-03-11T07:58:07.108Z,97.10
2019-03-11T08:00:53.461Z,95.60
2019-03-11T08:03:22.996Z,94.20
2019-03-11T08:06:01.420Z,95.40
2019-03-11T08:08:38.511Z,93.50
2019-03-11T08:11:15.493Z,92.90
2019-03-11T08:13:52.572Z,92.70
2019-03-11T08:16:30.362Z,92.30
2019-03-11T08:19:09.897Z,92.00
2019-03-11T08:21:47.017Z,90.60
2019-03-11T08:24:24.072Z,91.20
2019-03-11T08:27:01.130Z,90.00
2019-03-11T08:29:38.278Z,90.80
2019-03-11T08:32:15.403Z,90.50
2019-03-11T08:34:55.085Z,89.40
2019-03-11T08:37:32.205Z,89.60
2019-03-11T08:40:12.615Z,89.10
2019-03-11T08:42:49.659Z,89.40
2019-03-11T08:45:26.896Z,85.00
2019-03-11T08:48:06.511Z,83.50
2019-03-11T08:50:44.939Z,86.20
2019-03-11T08:53:21.998Z,84.00
2019-03-11T08:55:59.183Z,85.00
2019-03-11T08:58:36.327Z,80.70
2019-03-11T09:01:13.493Z,82.10
2019-03-11T09:03:50.654Z,83.60
2019-03-11T09:06:27.804Z,83.90
2019-03-11T09:09:07.810Z,82.40
2019-03-11T09:11:49.369Z,80.60
2019-03-11T09:14:27.279Z,80.70
2019-03-11T09:17:05.950Z,80.20
2019-03-11T09:19:44.065Z,82.50
2019-03-11T09:22:21.749Z,80.10
2019-03-11T09:24:58.807Z,79.50
2019-03-11T09:27:35.987Z,78.20
2019-03-11T09:30:19.298Z,77.80
2019-03-11T09:32:58.362Z,76.50
2019-03-11T09:35:36.473Z,76.70
2019-03-11T09:38:16.033Z,75.90
2019-03-11T09:40:53.106Z,77.20
2019-03-11T09:43:30.237Z,76.90
2019-03-11T09:46:07.343Z,76.90
2019-03-11T09:48:44.994Z,77.10
2019-03-11T09:51:22.161Z,79.20
2019-03-11T09:53:59.284Z,79.80
2019-03-11T09:56:43.116Z,80.50
2019-03-11T09:59:18.134Z,78.50
2019-03-11T10:01:55.224Z,79.10
2019-03-11T10:04:32.350Z,78.70
2019-03-11T10:07:09.432Z,79.60
2019-03-11T10:09:46.573Z,83.00
2019-03-11T10:12:23.642Z,79.30
2019-03-11T10:15:00.746Z,78.90
2019-03-11T10:17:37.860Z,78.90
2019-03-11T10:20:16.476Z,77.80
2019-03-11T10:22:53.542Z,75.50
2019-03-11T10:25:30.697Z,74.40
2019-03-11T10:28:07.850Z,72.40
2019-03-11T10:30:51.190Z,71.70
2019-03-11T10:33:31.811Z,70.60
2019-03-11T10:36:08.982Z,71.70
2019-03-11T10:38:46.068Z,72.50
2019-03-11T10:41:23.237Z,74.10
2019-03-11T10:44:00.343Z,76.80
2019-03-11T10:46:39.163Z,77.40
2019-03-11T10:49:18.219Z,87.10
2019-03-11T10:51:57.995Z,90.90
2019-03-11T10:54:43.518Z,92.10
2019-03-11T10:57:21.402Z,92.00
2019-03-11T10:59:58.650Z,93.30
2019-03-11T11:02:36.468Z,94.20
2019-03-11T11:05:13.549Z,94.40
2019-03-11T11:07:50.630Z,95.50
2019-03-11T11:10:27.746Z,95.00
2019-03-11T11:13:04.849Z,93.50
2019-03-11T11:15:42.006Z,92.90
2019-03-11T11:18:19.166Z,90.40
2019-03-11T11:20:56.296Z,90.30
2019-03-11T11:23:33.445Z,88.30
2019-03-11T11:26:10.525Z,88.20
2019-03-11T11:28:47.808Z,83.30
2019-03-11T11:31:24.854Z,82.30
2019-03-11T11:34:02.385Z,81.20
2019-03-11T11:36:39.458Z,80.20
2019-03-11T11:39:16.597Z,79.80
2019-03-11T11:41:53.718Z,79.10
2019-03-11T11:44:30.920Z,80.40
2019-03-11T11:47:08.047Z,79.90
2019-03-11T11:49:45.850Z,80.30
2019-03-11T11:52:24.591Z,83.80
2019-03-11T11:55:01.786Z,86.30
2019-03-11T11:57:38.913Z,87.50
2019-03-11T12:00:31.838Z,89.90
2019-03-11T12:03:08.855Z,90.50
2019-03-11T12:05:46.042Z,91.40
2019-03-11T12:08:26.922Z,90.60
2019-03-11T12:11:04.082Z,90.60
2019-03-11T12:13:41.198Z,90.90
2019-03-11T12:16:18.411Z,90.70
2019-03-11T12:18:55.538Z,89.80
2019-03-11T12:21:32.777Z,88.90
2019-03-11T12:24:14.156Z,90.10
2019-03-11T12:26:54.243Z,90.60
2019-03-11T12:29:31.587Z,89.70
2019-03-11T12:32:10.356Z,91.50
2019-03-11T12:34:47.509Z,92.10
2019-03-11T12:37:24.645Z,92.20
2019-03-11T12:40:01.738Z,93.60
2019-03-11T12:42:38.926Z,92.00
2019-03-11T12:45:22.240Z,93.00
2019-03-11T12:47:59.453Z,93.50
2019-03-11T12:50:41.330Z,95.10
2019-03-11T12:53:18.954Z,94.40
2019-03-11T12:55:56.084Z,95.10
2019-03-11T12:58:41.383Z,95.70
2019-03-11T13:01:12.537Z,95.70
2019-03-11T13:03:49.610Z,96.10
2019-03-11T13:06:26.649Z,95.70
2019-03-11T13:09:04.334Z,95.70
2019-03-11T13:11:41.373Z,96.30
2019-03-11T13:14:18.447Z,95.70
2019-03-11T13:16:55.461Z,95.70
2019-03-11T13:19:32.541Z,96.00
2019-03-11T13:22:09.689Z,95.70
2019-03-11T13:24:46.917Z,95.50
2019-03-11T13:27:23.990Z,96.50
2019-03-11T13:30:01.065Z,96.50
2019-03-11T13:32:38.116Z,95.40
2019-03-11T13:35:15.200Z,95.90
2019-03-11T13:37:52.261Z,95.30
2019-03-11T13:40:29.315Z,94.80
2019-03-11T13:43:06.755Z,95.00
2019-03-11T13:45:44.093Z,96.00
2019-03-11T13:48:21.134Z,94.60
2019-03-11T13:50:58.168Z,93.90
2019-03-11T13:53:35.228Z,93.30
2019-03-11T13:56:12.377Z,94.10
2019-03-11T13:58:49.407Z,94.10
2019-03-11T14:01:26.726Z,94.20
2019-03-11T14:04:03.751Z,94.30
2019-03-11T14:06:40.835Z,92.50
2019-03-11T14:09:22.139Z,91.60
2019-03-11T14:11:59.166Z,90.90
2019-03-11T14:14:36.214Z,89.90
2019-03-11T14:17:13.281Z,90.20
2019-03-11T14:19:50.273Z,90.70
2019-03-11T14:22:27.453Z,90.50
2019-03-11T14:25:05.691Z,90.50
2019-03-11T14:27:42.892Z,91.40
2019-03-11T14:30:21.446Z,91.50
2019-03-11T14:32:59.576Z,90.80
2019-03-11T14:35:37.858Z,89.10
2019-03-11T16:06:01.424Z,94.30
2019-03-11T16:08:38.516Z,94.10
2019-03-11T16:11:15.624Z,94.40
2019-03-11T16:16:40.009Z,93.20
2019-03-11T16:19:16.973Z,92.70
2019-03-11T16:21:54.048Z,92.90
2019-03-11T16:24:31.118Z,93.60
2019-03-11T16:27:08.227Z,93.90
2019-03-11T16:29:45.291Z,93.90
2019-03-11T16:32:22.444Z,94.40
2019-03-11T16:34:59.492Z,93.90
2019-03-11T16:37:36.603Z,94.00
2019-03-11T16:40:14.666Z,93.60
2019-03-11T16:42:51.981Z,93.10
2019-03-11T16:45:29.016Z,93.60
2019-03-11T16:48:06.067Z,93.40
2019-03-11T16:50:43.108Z,92.50
2019-03-11T16:53:20.137Z,91.90
2019-03-11T16:55:57.261Z,92.20
2019-03-11T16:58:34.329Z,92.50
2019-03-11T17:01:13.001Z,92.90
2019-03-11T17:03:50.012Z,93.90
2019-03-11T17:06:27.133Z,94.60
2019-03-11T17:09:05.026Z,95.90
2019-03-11T17:11:42.090Z,96.80
2019-03-11T17:14:19.215Z,97.30
2019-03-11T17:16:56.213Z,97.70
2019-03-11T17:19:33.373Z,98.40
2019-03-11T17:22:11.502Z,98.90
2019-03-11T17:24:48.652Z,99.30
2019-03-11T17:27:27.920Z,99.50
2019-03-11T17:30:08.778Z,99.70
2019-03-11T17:32:45.844Z,99.90
2019-03-11T17:35:22.921Z,99.90
2019-03-11T17:38:02.701Z,99.90
2019-03-11T17:40:39.756Z,99.90
2019-03-11T17:43:16.789Z,99.90
2019-03-11T17:45:55.246Z,99.90
2019-03-11T17:48:32.278Z,99.90
2019-03-11T17:51:09.476Z,99.90
2019-03-11T17:53:46.489Z,99.90
2019-03-11T17:56:23.616Z,99.90
2019-03-11T17:59:02.338Z,99.90
2019-03-11T18:01:39.450Z,99.90
2019-03-11T18:04:16.492Z,99.90
2019-03-11T18:06:53.630Z,99.90
2019-03-11T18:09:30.661Z,99.90
2019-03-11T18:12:07.759Z,99.90
2019-03-11T18:14:45.111Z,99.90
2019-03-11T18:17:22.183Z,99.80
2019-03-11T18:19:59.314Z,99.30
2019-03-11T18:22:36.332Z,98.60
2019-03-11T18:25:15.264Z,98.70
2019-03-11T18:27:52.352Z,98.70
2019-03-11T18:30:32.420Z,98.40
2019-03-11T18:33:10.305Z,98.80
2019-03-11T18:35:51.559Z,98.80
2019-03-11T18:38:30.964Z,99.00
2019-03-11T18:41:08.811Z,99.00
2019-03-11T18:43:45.860Z,99.30
2019-03-11T18:46:22.949Z,99.50
2019-03-11T18:49:09.252Z,99.40
2019-03-11T18:51:45.449Z,99.40
2019-03-11T18:54:23.808Z,99.50
2019-03-11T18:57:01.006Z,99.30
2019-03-11T18:59:38.089Z,99.30
2019-03-11T19:02:15.518Z,99.30
2019-03-11T19:04:53.936Z,99.30
2019-03-11T19:07:31.032Z,99.50
2019-03-11T19:10:16.052Z,99.60
2019-03-11T19:12:53.131Z,99.70
2019-03-11T19:15:30.567Z,99.80
2019-03-11T19:18:07.658Z,99.80
2019-03-11T19:20:44.738Z,99.90
2019-03-11T19:23:21.797Z,99.90
2019-03-11T19:25:58.882Z,99.90
2019-03-11T19:28:37.144Z,99.90
2019-03-11T19:31:15.399Z,99.90
2019-03-11T19:33:52.479Z,99.90
2019-03-11T19:36:30.152Z,99.90
2019-03-11T19:39:10.555Z,99.90
2019-03-11T19:41:47.686Z,99.90
2019-03-11T19:44:26.418Z,99.90
2019-03-11T19:47:03.519Z,99.90
2019-03-11T19:49:40.649Z,99.90
2019-03-11T19:52:18.499Z,99.90
2019-03-11T19:54:56.567Z,99.90
2019-03-11T19:57:33.635Z,99.90
2019-03-11T20:00:23.746Z,99.90
2019-03-11T20:03:01.943Z,99.90
2019-03-11T20:05:39.799Z,99.90
2019-03-11T20:08:18.082Z,99.90
2019-03-11T20:11:00.410Z,99.90
2019-03-11T20:13:38.653Z,99.90
2019-03-11T20:16:17.546Z,99.90
2019-03-11T20:18:56.867Z,99.90
2019-03-11T20:21:35.635Z,99.90
2019-03-11T20:24:12.729Z,99.90
2019-03-11T20:26:52.512Z,99.90
2019-03-11T20:29:29.598Z,99.90
2019-03-11T20:32:06.865Z,99.90
2019-03-11T20:34:46.192Z,99.90
2019-03-11T20:37:23.668Z,99.90
2019-03-11T20:40:00.760Z,99.90
2019-03-11T20:42:39.209Z,99.90
2019-03-11T20:45:18.020Z,99.90
2019-03-11T20:47:58.811Z,99.90
2019-03-11T20:50:42.167Z,99.90
2019-03-11T20:53:14.603Z,99.90
2019-03-11T20:55:51.660Z,99.90
2019-03-11T20:58:28.771Z,99.90
2019-03-11T21:01:06.115Z,99.90
2019-03-11T21:03:43.195Z,99.90
2019-03-11T21:06:20.507Z,99.90
2019-03-11T21:08:57.668Z,99.90
2019-03-11T21:11:36.060Z,99.90
2019-03-11T21:14:13.337Z,99.90
2019-03-11T21:16:50.555Z,99.90
2019-03-11T21:19:29.061Z,99.90
2019-03-11T21:22:06.166Z,99.90
2019-03-11T21:24:43.253Z,99.90
2019-03-11T21:27:20.377Z,99.90
2019-03-11T21:29:58.232Z,99.90
2019-03-11T21:32:40.780Z,99.90
2019-03-11T21:35:20.429Z,99.90
2019-03-11T21:37:57.610Z,99.90
2019-03-11T21:40:36.331Z,99.90
2019-03-11T21:43:17.210Z,99.90
2019-03-11T21:45:54.900Z,99.90
2019-03-11T21:48:33.077Z,99.90
2019-03-11T21:51:10.834Z,99.90
2019-03-11T21:53:52.160Z,99.90
2019-03-11T21:56:31.885Z,99.90
2019-03-11T21:59:12.670Z,99.90
2019-03-11T22:01:55.892Z,99.90
2019-03-11T22:04:39.636Z,99.90
2019-03-11T22:07:19.161Z,99.90
2019-03-11T22:10:00.806Z,99.90
2019-03-11T22:15:56.589Z,99.90
2019-03-11T22:18:33.697Z,99.90
2019-03-11T22:21:18.704Z,99.90
2019-03-11T22:23:55.912Z,99.90
2019-03-11T22:26:39.034Z,99.90
2019-03-11T22:29:28.397Z,99.90
2019-03-11T22:32:05.578Z,99.90
2019-03-11T22:34:46.047Z,99.90
2019-03-11T22:37:39.977Z,99.90
2019-03-11T22:40:20.464Z,99.90
2019-03-11T22:43:10.159Z,99.90
2019-03-11T22:46:23.010Z,99.90
2019-03-11T22:49:03.874Z,99.90
2019-03-11T22:51:41.060Z,99.90
2019-03-11T22:54:18.124Z,99.90
2019-03-11T22:57:06.814Z,99.90
2019-03-11T22:59:52.707Z,99.90
2019-03-11T23:02:29.801Z,99.90
2019-03-11T23:05:17.589Z,99.90
2019-03-11T23:07:54.728Z,99.90
2019-03-11T23:10:39.057Z,99.90
2019-03-11T23:13:16.332Z,99.90
2019-03-11T23:15:54.508Z,99.90
2019-03-11T23:18:31.539Z,99.90
2019-03-11T23:21:08.661Z,99.90
2019-03-11T23:23:47.426Z,99.90
2019-03-11T23:26:24.797Z,99.90
2019-03-11T23:29:01.956Z,99.90
2019-03-11T23:31:39.040Z,99.90
2019-03-11T23:34:18.536Z,99.90
2019-03-11T23:36:58.865Z,99.90
2019-03-11T23:39:38.227Z,99.90
2019-03-11T23:42:18.517Z,99.90
2019-03-11T23:45:14.930Z,99.90
2019-03-11T23:47:52.004Z,99.90
2019-03-11T23:50:30.757Z,99.90
2019-03-11T23:53:09.069Z,99.90
2019-03-11T23:55:46.430Z,99.90
2019-03-11T23:58:23.678Z,99.90
